createdAt,value
2019-04-01T00:00:16.506Z,101858.57
2019-04-01T00:02:47.339Z,101860.78
2019-04-01T00:05:17.251Z,101855.89
2019-04-01T00:07:47.121Z,101860.14
2019-04-01T00:10:17.227Z,101852.62
2019-04-01T00:12:47.071Z,101857.68
2019-04-01T00:15:17.166Z,101847.34
2019-04-01T00:17:47.002Z,101847.09
2019-04-01T00:20:16.919Z,101847.85
2019-04-01T00:22:47.509Z,101845.95
2019-04-01T00:25:19.693Z,101842.28
2019-04-01T00:27:49.526Z,101841.73
2019-04-01T00:30:19.458Z,101840.79
2019-04-01T00:32:49.536Z,101840.32
2019-04-01T00:35:19.450Z,101839.47
2019-04-01T00:37:49.554Z,101840.32
2019-04-01T00:40:19.403Z,101845.69
2019-04-01T00:42:53.720Z,101845.77
2019-04-01T00:45:24.049Z,101844.16
2019-04-01T00:47:54.052Z,101840.97
2019-04-01T00:50:23.980Z,101850.19
2019-04-01T00:52:53.811Z,101842.72
2019-04-01T00:55:23.740Z,101841.49
2019-04-01T00:57:53.499Z,101845.83
2019-04-01T01:00:23.267Z,101844.13
2019-04-01T01:02:53.135Z,101843.39
2019-04-01T01:05:23.920Z,101841.70
2019-04-01T01:07:53.684Z,101842.63
2019-04-01T01:10:23.874Z,101846.58
2019-04-01T01:12:53.638Z,101834.73
2019-04-01T01:15:23.711Z,101843.56
2019-04-01T01:17:53.609Z,101836.77
2019-04-01T01:20:23.448Z,101836.94
2019-04-01T01:22:53.612Z,101837.12
2019-04-01T01:25:23.781Z,101833.84
2019-04-01T01:27:53.703Z,101840.51
2019-04-01T01:30:23.537Z,101834.09
2019-04-01T01:32:53.610Z,101833.80
2019-04-01T01:35:23.382Z,101836.98
2019-04-01T01:37:53.316Z,101832.47
2019-04-01T01:40:23.535Z,101823.04
2019-04-01T01:42:53.449Z,101829.23
2019-04-01T01:45:23.607Z,101837.22
2019-04-01T01:47:53.782Z,101831.83
2019-04-01T01:50:23.648Z,101824.31
2019-04-01T01:52:53.750Z,101823.46
2019-04-01T01:55:23.543Z,101821.03
2019-04-01T01:57:53.670Z,101818.56
2019-04-01T02:00:24.701Z,101819.20
2019-04-01T02:02:54.459Z,101822.77
2019-04-01T02:05:24.306Z,101822.08
2019-04-01T02:07:54.078Z,101817.09
2019-04-01T02:10:23.907Z,101815.87
2019-04-01T02:12:53.828Z,101815.48
2019-04-01T02:15:23.610Z,101816.03
2019-04-01T02:17:53.434Z,101820.14
2019-04-01T02:20:23.260Z,101813.18
2019-04-01T02:22:53.143Z,101802.82
2019-04-01T02:25:22.887Z,101810.72
2019-04-01T02:27:52.802Z,101816.91
2019-04-01T02:30:22.735Z,101807.05
2019-04-01T02:32:52.512Z,101807.21
2019-04-01T02:35:22.348Z,101805.21
2019-04-01T02:37:52.200Z,101808.47
2019-04-01T02:40:22.541Z,101807.54
2019-04-01T02:42:52.463Z,101805.92
2019-04-01T02:45:22.396Z,101804.69
2019-04-01T02:47:52.308Z,101807.78
2019-04-01T02:50:22.145Z,101803.10
2019-04-01T02:52:52.077Z,101802.17
2019-04-01T02:55:22.205Z,101799.31
2019-04-01T02:57:51.977Z,101799.78
2019-04-01T03:00:22.031Z,101800.80
2019-04-01T03:02:51.781Z,101797.78
2019-04-01T03:05:22.195Z,101792.60
2019-04-01T03:07:52.125Z,101794.55
2019-04-01T03:10:22.047Z,101791.06
2019-04-01T03:12:52.254Z,101788.90
2019-04-01T03:15:22.481Z,101791.72
2019-04-01T03:17:52.312Z,101790.88
2019-04-01T03:20:22.235Z,101793.59
2019-04-01T03:22:52.086Z,101795.45
2019-04-01T03:25:22.006Z,101793.75
2019-04-01T03:27:51.855Z,101795.61
2019-04-01T03:30:21.815Z,101795.77
2019-04-01T03:32:51.582Z,101793.14
2019-04-01T03:35:21.853Z,101785.44
2019-04-01T03:37:51.715Z,101789.00
2019-04-01T03:40:21.932Z,101791.79
2019-04-01T03:42:51.863Z,101790.47
2019-04-01T03:45:21.687Z,101790.01
2019-04-01T03:47:51.639Z,101787.46
2019-04-01T03:50:21.763Z,101789.32
2019-04-01T03:52:51.675Z,101785.07
2019-04-01T03:55:21.512Z,101785.14
2019-04-01T03:57:51.444Z,101788.32
2019-04-01T04:00:21.334Z,101777.61
2019-04-01T04:02:51.213Z,101780.70
2019-04-01T04:05:21.385Z,101788.20
2019-04-01T04:07:52.275Z,101786.58
2019-04-01T04:10:22.828Z,101789.34
2019-04-01T04:12:53.388Z,101778.91
2019-04-01T04:15:23.224Z,101782.37
2019-04-01T04:17:53.571Z,101781.06
2019-04-01T04:20:23.480Z,101782.37
2019-04-01T04:22:53.948Z,101778.44
2019-04-01T04:25:24.293Z,101772.95
2019-04-01T04:27:54.539Z,101774.45
2019-04-01T04:30:24.466Z,101777.62
2019-04-01T04:32:54.577Z,101773.91
2019-04-01T04:35:24.848Z,101776.85
2019-04-01T04:37:55.069Z,101777.39
2019-04-01T04:40:25.700Z,101771.52
2019-04-01T04:42:56.230Z,101773.88
2019-04-01T04:45:27.758Z,101774.41
2019-04-01T04:47:57.909Z,101770.16
2019-04-01T04:50:27.743Z,101775.34
2019-04-01T04:52:57.671Z,101772.79
2019-04-01T04:55:27.794Z,101776.73
2019-04-01T04:57:57.736Z,101772.41
2019-04-01T05:00:27.623Z,101774.64
2019-04-01T05:02:57.894Z,101767.77
2019-04-01T05:05:28.063Z,101768.77
2019-04-01T05:07:57.897Z,101774.80
2019-04-01T05:10:27.822Z,101768.62
2019-04-01T05:12:57.598Z,101764.13
2019-04-01T05:15:27.513Z,101770.62
2019-04-01T05:17:57.438Z,101769.63
2019-04-01T05:20:28.170Z,101766.69
2019-04-01T05:22:58.571Z,101774.11
2019-04-01T05:25:31.942Z,101770.16
2019-04-01T05:28:03.540Z,101770.70
2019-04-01T05:30:36.970Z,101778.12
2019-04-01T05:33:06.820Z,101776.03
2019-04-01T05:35:36.904Z,101775.50
2019-04-01T05:38:07.863Z,101774.56
2019-04-01T05:40:38.074Z,101781.21
2019-04-01T05:43:07.907Z,101778.52
2019-04-01T05:45:38.223Z,101783.77
2019-04-01T05:48:09.220Z,101782.84
2019-04-01T05:50:39.422Z,101786.23
2019-04-01T05:53:09.348Z,101780.20
2019-04-01T05:55:39.259Z,101783.77
2019-04-01T05:58:09.442Z,101780.20
2019-04-01T06:00:43.873Z,101785.31
2019-04-01T06:03:14.106Z,101783.07
2019-04-01T06:05:44.603Z,101782.61
2019-04-01T06:08:14.818Z,101781.56
2019-04-01T06:10:44.841Z,101779.71
2019-04-01T06:13:15.356Z,101783.04
2019-04-01T06:15:45.289Z,101787.21
2019-04-01T06:18:15.498Z,101788.72
2019-04-01T06:20:46.652Z,101784.31
2019-04-01T06:23:16.843Z,101788.10
2019-04-01T06:25:46.700Z,101781.45
2019-04-01T06:28:16.614Z,101786.20
2019-04-01T06:30:46.537Z,101784.42
2019-04-01T06:33:17.441Z,101782.56
2019-04-01T06:35:48.428Z,101779.94
2019-04-01T06:38:18.346Z,101782.48
2019-04-01T06:40:48.929Z,101776.41
2019-04-01T06:43:18.846Z,101775.32
2019-04-01T06:45:48.965Z,101770.75
2019-04-01T06:48:19.198Z,101775.08
2019-04-01T06:50:49.408Z,101775.84
2019-04-01T06:53:19.666Z,101779.33
2019-04-01T06:55:49.507Z,101779.19
2019-04-01T06:58:19.625Z,101783.99
2019-04-01T07:00:49.841Z,101781.33
2019-04-01T07:03:19.769Z,101782.72
2019-04-01T07:05:49.698Z,101782.30
2019-04-01T07:08:19.701Z,101785.11
2019-04-01T07:10:49.622Z,101780.05
2019-04-01T07:13:19.547Z,101780.58
2019-04-01T07:15:49.340Z,101780.72
2019-04-01T07:18:19.252Z,101775.19
2019-04-01T07:20:49.370Z,101777.03
2019-04-01T07:23:19.380Z,101775.75
2019-04-01T07:25:49.218Z,101773.12
2019-04-01T07:28:19.139Z,101780.14
2019-04-01T07:30:49.254Z,101772.84
2019-04-01T07:33:19.162Z,101769.77
2019-04-01T07:35:49.131Z,101770.67
2019-04-01T07:38:19.015Z,101771.07
2019-04-01T07:40:48.942Z,101767.94
2019-04-01T07:43:18.869Z,101766.25
2019-04-01T07:45:48.765Z,101772.48
2019-04-01T07:48:18.829Z,101762.72
2019-04-01T07:50:48.989Z,101764.59
2019-04-01T07:53:19.273Z,101769.91
2019-04-01T07:55:49.185Z,101764.72
2019-04-01T07:58:19.350Z,101763.44
2019-04-01T08:00:49.272Z,101754.72
2019-04-01T08:03:19.183Z,101758.84
2019-04-01T08:05:49.082Z,101752.37
2019-04-01T08:08:19.093Z,101758.23
2019-04-01T08:10:50.189Z,101750.41
2019-04-01T08:13:20.034Z,101756.64
2019-04-01T08:15:49.948Z,101753.52
2019-04-01T08:18:19.870Z,101746.10
2019-04-01T08:20:49.786Z,101747.02
2019-04-01T08:23:19.706Z,101745.25
2019-04-01T08:25:49.615Z,101744.91
2019-04-01T08:28:19.543Z,101736.88
2019-04-01T08:30:50.637Z,101740.09
2019-04-01T08:33:21.149Z,101737.83
2019-04-01T08:35:53.138Z,101735.48
2019-04-01T08:38:25.086Z,101730.48
2019-04-01T08:40:55.012Z,101730.17
2019-04-01T08:43:25.488Z,101731.31
2019-04-01T08:45:55.422Z,101724.81
2019-04-01T08:48:26.248Z,101729.90
2019-04-01T08:50:56.186Z,101719.78
2019-04-01T08:53:26.068Z,101718.18
2019-04-01T08:56:00.908Z,101720.63
2019-04-01T08:58:28.583Z,101713.71
2019-04-01T09:00:58.432Z,101718.70
2019-04-01T09:03:28.876Z,101707.58
2019-04-01T09:05:59.868Z,101704.55
2019-04-01T09:08:29.916Z,101707.52
2019-04-01T09:10:59.930Z,101706.19
2019-04-01T09:13:30.046Z,101704.92
2019-04-01T09:16:00.832Z,101701.70
2019-04-01T09:18:30.664Z,101701.61
2019-04-01T09:21:00.594Z,101697.83
2019-04-01T09:23:30.437Z,101692.12
2019-04-01T09:26:00.364Z,101690.22
2019-04-01T09:28:30.205Z,101692.09
2019-04-01T09:31:00.525Z,101690.77
2019-04-01T09:33:30.375Z,101686.23
2019-04-01T09:36:00.316Z,101682.08
2019-04-01T09:38:30.471Z,101682.78
2019-04-01T09:41:00.416Z,101688.14
2019-04-01T09:43:30.822Z,101685.09
2019-04-01T09:46:00.665Z,101678.16
2019-04-01T09:48:30.520Z,101676.16
2019-04-01T09:51:00.441Z,101668.61
2019-04-01T09:53:30.380Z,101665.86
2019-04-01T09:56:00.298Z,101665.66
2019-04-01T09:58:30.757Z,101665.22
2019-04-01T10:01:00.677Z,101666.49
2019-04-01T10:03:30.602Z,101653.37
2019-04-01T10:06:00.447Z,101656.98
2019-04-01T10:08:41.901Z,101647.32
2019-04-01T10:11:02.269Z,101643.89
2019-04-01T10:13:32.556Z,101639.25
2019-04-01T10:16:02.496Z,101634.88
2019-04-01T10:18:32.417Z,101633.14
2019-04-01T10:21:02.622Z,101632.98
2019-04-01T10:23:32.474Z,101621.17
2019-04-01T10:26:02.466Z,101621.76
2019-04-01T10:28:32.515Z,101610.52
2019-04-01T10:31:02.534Z,101616.12
2019-04-01T10:33:32.503Z,101601.95
2019-04-01T10:36:02.598Z,101599.19
2019-04-01T10:38:32.477Z,101603.05
2019-04-01T10:41:02.433Z,101595.83
2019-04-01T10:43:32.283Z,101586.66
2019-04-01T10:46:02.213Z,101583.34
2019-04-01T10:48:32.123Z,101583.30
2019-04-01T10:51:02.785Z,101577.13
2019-04-01T10:53:32.751Z,101574.52
2019-04-01T10:56:02.571Z,101570.71
2019-04-01T10:58:32.971Z,101566.89
2019-04-01T11:01:02.988Z,101561.63
2019-04-01T11:03:32.862Z,101559.16
2019-04-01T11:06:02.843Z,101555.60
2019-04-01T11:08:33.278Z,101555.24
2019-04-01T11:11:03.548Z,101547.58
2019-04-01T11:13:33.471Z,101543.22
2019-04-01T11:16:03.433Z,101541.41
2019-04-01T11:18:33.310Z,101538.98
2019-04-01T11:21:04.923Z,101540.62
2019-04-01T11:23:35.022Z,101542.25
2019-04-01T11:26:04.965Z,101530.77
2019-04-01T11:28:36.331Z,101528.27
2019-04-01T11:31:06.328Z,101525.86
2019-04-01T11:33:36.240Z,101526.88
2019-04-01T11:36:06.201Z,101525.09
2019-04-01T11:38:36.206Z,101522.25
2019-04-01T11:41:06.129Z,101520.32
2019-04-01T11:43:36.062Z,101518.15
2019-04-01T11:46:05.859Z,101516.95
2019-04-01T11:48:35.797Z,101503.43
2019-04-01T11:51:05.704Z,101502.19
2019-04-01T11:53:36.628Z,101499.93
2019-04-01T11:56:07.347Z,101496.89
2019-04-01T11:58:38.456Z,101495.80
2019-04-01T12:01:08.367Z,101493.84
2019-04-01T12:03:38.294Z,101485.91
2019-04-01T12:06:09.234Z,101480.55
2019-04-01T12:08:39.162Z,101473.98
2019-04-01T12:11:09.015Z,101481.48
2019-04-01T12:13:39.504Z,101472.48
2019-04-01T12:16:09.727Z,101465.84
2019-04-01T12:18:40.109Z,101459.66
2019-04-01T12:21:10.101Z,101458.50
2019-04-01T12:23:40.175Z,101444.56
2019-04-01T12:26:15.297Z,101443.98
2019-04-01T12:28:42.705Z,101450.56
2019-04-01T12:31:13.550Z,101431.06
2019-04-01T12:33:43.484Z,101433.00
2019-04-01T12:36:13.436Z,101431.17
2019-04-01T12:38:43.561Z,101420.19
2019-04-01T12:41:14.747Z,101426.97
2019-04-01T12:43:44.682Z,101421.28
2019-04-01T12:46:14.798Z,101414.42
2019-04-01T12:48:44.779Z,101416.94
2019-04-01T12:51:14.634Z,101417.78
2019-04-01T12:53:45.215Z,101406.72
2019-04-01T12:56:16.762Z,101403.23
2019-04-01T12:58:46.640Z,101397.50
2019-04-01T13:01:16.423Z,101385.86
2019-04-01T13:03:46.275Z,101381.27
2019-04-01T13:06:16.132Z,101387.20
2019-04-01T13:08:46.031Z,101379.63
2019-04-01T13:11:15.876Z,101379.63
2019-04-01T13:13:48.707Z,101375.69
2019-04-01T13:16:17.696Z,101365.02
2019-04-01T13:18:47.925Z,101363.12
2019-04-01T13:21:18.349Z,101361.82
2019-04-01T13:23:48.352Z,101352.37
2019-04-01T13:26:18.481Z,101347.80
2019-04-01T13:28:48.601Z,101344.39
2019-04-01T13:31:18.535Z,101344.19
2019-04-01T13:33:48.311Z,101337.78
2019-04-01T13:36:18.088Z,101337.78
2019-04-01T13:38:47.893Z,101333.03
2019-04-01T13:41:18.109Z,101323.13
2019-04-01T13:43:48.194Z,101326.11
2019-04-01T13:46:18.388Z,101318.21
2019-04-01T13:48:57.639Z,101315.58
2019-04-01T13:51:20.446Z,101295.00
2019-04-01T13:53:50.361Z,101295.00
2019-04-01T13:56:20.282Z,101291.16
2019-04-01T13:58:50.122Z,101291.20
2019-04-01T14:01:20.050Z,101285.67
2019-04-01T14:03:49.990Z,101286.36
2019-04-01T14:06:19.849Z,101274.55
2019-04-01T14:08:51.155Z,101262.81
2019-04-01T14:11:21.125Z,101262.22
2019-04-01T14:13:51.061Z,101262.22
2019-04-01T14:16:22.283Z,101268.34
2019-04-01T14:18:52.558Z,101270.70
2019-04-01T14:21:23.398Z,101262.34
2019-04-01T14:23:54.438Z,101258.31
2019-04-01T14:26:24.369Z,101250.20
2019-04-01T14:28:54.237Z,101241.06
2019-04-01T14:31:24.161Z,101243.33
2019-04-01T14:33:54.018Z,101239.93
2019-04-01T14:36:24.059Z,101234.82
2019-04-01T14:38:53.910Z,101221.91
2019-04-01T14:41:24.209Z,101221.91
2019-04-01T14:43:55.244Z,101225.11
2019-04-01T14:46:25.263Z,101221.66
2019-04-01T14:48:55.032Z,101216.65
2019-04-01T14:51:24.979Z,101211.80
2019-04-01T14:53:55.197Z,101210.28
2019-04-01T14:56:25.178Z,101210.76
2019-04-01T14:58:55.589Z,101212.92
2019-04-01T15:01:25.529Z,101205.52
2019-04-01T15:03:55.457Z,101200.81
2019-04-01T15:06:25.446Z,101194.77
2019-04-01T15:08:55.678Z,101192.09
2019-04-01T15:11:25.765Z,101185.40
2019-04-01T15:13:55.864Z,101183.38
2019-04-01T15:16:25.763Z,101183.20
2019-04-01T15:18:55.806Z,101176.50
2019-04-01T15:21:26.016Z,101173.48
2019-04-01T15:23:57.696Z,101168.03
2019-04-01T15:26:27.596Z,101158.41
2019-04-01T15:28:57.443Z,101155.06
2019-04-01T15:31:27.621Z,101151.52
2019-04-01T15:33:57.544Z,101151.52
2019-04-01T15:36:27.428Z,101150.31
2019-04-01T15:38:57.212Z,101140.59
2019-04-01T15:41:27.158Z,101140.59
2019-04-01T15:43:57.748Z,101133.25
2019-04-01T15:46:30.680Z,101127.44
2019-04-01T15:49:01.008Z,101115.24
2019-04-01T15:51:31.198Z,101115.24
2019-04-01T15:54:01.628Z,101126.20
2019-04-01T15:56:31.563Z,101124.83
2019-04-01T15:59:01.993Z,101117.39
2019-04-01T16:01:31.838Z,101114.98
2019-04-01T16:04:02.059Z,101115.20
2019-04-01T16:06:32.054Z,101106.88
2019-04-01T16:09:02.126Z,101105.00
2019-04-01T16:11:33.735Z,101094.59
2019-04-01T16:14:03.656Z,101103.00
2019-04-01T16:16:33.810Z,101097.73
2019-04-01T16:19:04.047Z,101095.30
2019-04-01T16:21:33.894Z,101093.50
2019-04-01T16:24:03.753Z,101091.94
2019-04-01T16:26:33.971Z,101091.84
2019-04-01T16:29:05.841Z,101090.55
2019-04-01T16:31:35.760Z,101091.34
2019-04-01T16:34:05.939Z,101089.43
2019-04-01T16:36:35.854Z,101092.27
2019-04-01T16:39:08.019Z,101083.72
2019-04-01T16:41:39.219Z,101089.97
2019-04-01T16:44:09.138Z,101088.05
2019-04-01T16:46:39.084Z,101081.81
2019-04-01T16:49:09.295Z,101085.41
2019-04-01T16:51:41.332Z,101079.75
2019-04-01T16:54:10.817Z,101084.25
2019-04-01T16:56:40.660Z,101085.41
2019-04-01T16:59:10.570Z,101076.30
2019-04-01T17:01:41.703Z,101075.22
2019-04-01T17:04:11.660Z,101081.70
2019-04-01T17:06:41.569Z,101072.62
2019-04-01T17:09:11.487Z,101073.19
2019-04-01T17:11:41.419Z,101071.53
2019-04-01T17:14:11.334Z,101069.88
2019-04-01T17:16:41.532Z,101075.67
2019-04-01T17:19:11.380Z,101068.45
2019-04-01T17:21:41.303Z,101061.27
2019-04-01T17:24:11.148Z,101063.63
2019-04-01T17:26:59.957Z,101059.67
2019-04-01T17:29:32.015Z,101059.67
2019-04-01T17:32:02.320Z,101059.02
2019-04-01T17:34:32.275Z,101055.02
2019-04-01T17:37:02.557Z,101057.31
2019-04-01T17:39:34.143Z,101058.96
2019-04-01T17:42:04.871Z,101058.96
2019-04-01T17:44:35.050Z,101054.60
2019-04-01T17:47:06.138Z,101061.91
2019-04-01T17:49:36.542Z,101055.52
2019-04-01T17:52:06.466Z,101055.63
2019-04-01T17:54:38.524Z,101057.29
2019-04-01T17:57:08.058Z,101059.69
2019-04-01T17:59:37.995Z,101058.77
2019-04-01T18:02:11.918Z,101054.52
2019-04-01T18:04:41.775Z,101054.27
2019-04-01T18:07:11.979Z,101055.41
2019-04-01T18:09:41.824Z,101051.22
2019-04-01T18:12:11.763Z,101051.34
2019-04-01T18:14:41.684Z,101046.80
2019-04-01T18:17:12.210Z,101047.86
2019-04-01T18:19:42.334Z,101038.48
2019-04-01T18:22:12.490Z,101046.36
2019-04-01T18:24:42.334Z,101046.89
2019-04-01T18:27:12.522Z,101046.80
2019-04-01T18:29:42.384Z,101042.11
2019-04-01T18:32:12.747Z,101049.70
2019-04-01T18:34:42.580Z,101045.31
2019-04-01T18:37:12.893Z,101050.29
2019-04-01T18:39:48.452Z,101045.20
2019-04-01T18:42:14.773Z,101050.39
2019-04-01T18:44:45.062Z,101052.94
2019-04-01T18:47:14.999Z,101048.23
2019-04-01T18:49:46.040Z,101053.50
2019-04-01T18:52:16.353Z,101048.18
2019-04-01T18:54:46.117Z,101052.11
2019-04-01T18:57:15.964Z,101053.41
2019-04-01T18:59:45.816Z,101048.38
2019-04-01T19:02:16.032Z,101051.33
2019-04-01T19:04:46.202Z,101054.77
2019-04-01T19:07:16.107Z,101055.58
2019-04-01T19:09:45.954Z,101052.48
2019-04-01T19:12:15.928Z,101050.88
2019-04-01T19:14:45.830Z,101048.91
2019-04-01T19:17:15.610Z,101050.77
2019-04-01T19:19:48.599Z,101050.28
2019-04-01T19:22:17.972Z,101049.55
2019-04-01T19:24:47.738Z,101047.11
2019-04-01T19:27:17.531Z,101043.41
2019-04-01T19:29:48.667Z,101049.06
2019-04-01T19:32:18.795Z,101047.95
2019-04-01T19:34:48.644Z,101049.27
2019-04-01T19:37:18.579Z,101049.02
2019-04-01T19:39:48.447Z,101053.22
2019-04-01T19:42:18.754Z,101049.58
2019-04-01T19:44:48.978Z,101048.53
2019-04-01T19:47:18.829Z,101052.30
2019-04-01T19:49:48.681Z,101058.06
2019-04-01T19:52:18.880Z,101051.70
2019-04-01T19:54:49.038Z,101050.78
2019-04-01T19:57:18.972Z,101054.07
2019-04-01T19:59:48.781Z,101056.38
2019-04-01T20:02:18.714Z,101053.86
2019-04-01T20:04:48.633Z,101053.19
2019-04-01T20:07:18.775Z,101057.94
2019-04-01T20:09:48.926Z,101053.52
2019-04-01T20:12:19.102Z,101058.75
2019-04-01T20:14:49.281Z,101058.70
2019-04-01T20:17:19.501Z,101056.81
2019-04-01T20:19:49.443Z,101054.64
2019-04-01T20:22:19.535Z,101060.44
2019-04-01T20:24:49.757Z,101059.73
2019-04-01T20:27:20.740Z,101049.01
2019-04-01T20:29:50.640Z,101055.95
2019-04-01T20:32:20.659Z,101049.23
2019-04-01T20:34:56.788Z,101051.19
2019-04-01T20:37:22.049Z,101049.15
2019-04-01T20:39:51.945Z,101040.92
2019-04-01T20:42:21.729Z,101035.34
2019-04-01T20:44:51.519Z,101034.91
2019-04-01T20:47:21.656Z,101039.42
2019-04-01T20:49:51.528Z,101038.76
2019-04-01T20:52:21.813Z,101030.80
2019-04-01T20:54:53.432Z,101035.31
2019-04-01T20:57:23.387Z,101028.98
2019-04-01T20:59:53.229Z,101027.65
2019-04-01T21:02:23.139Z,101029.19
2019-04-01T21:04:53.061Z,101020.12
2019-04-01T21:07:23.119Z,101013.83
2019-04-01T21:09:53.343Z,101016.63
2019-04-01T21:12:23.123Z,101006.01
2019-04-01T21:14:55.883Z,101010.34
2019-04-01T21:17:24.672Z,101005.80
2019-04-01T21:19:54.520Z,100998.81
2019-04-01T21:22:24.381Z,101004.66
2019-04-01T21:24:54.568Z,101000.42
2019-04-01T21:27:24.479Z,100993.48
2019-04-01T21:29:54.268Z,100994.55
2019-04-01T21:32:24.134Z,100995.09
2019-04-01T21:34:54.887Z,100994.78
2019-04-01T21:37:24.670Z,100993.32
2019-04-01T21:39:54.476Z,100993.59
2019-04-01T21:42:24.405Z,100989.87
2019-04-01T21:44:54.493Z,100990.66
2019-04-01T21:47:25.093Z,100989.47
2019-04-01T21:49:55.062Z,100988.41
2019-04-01T21:52:24.988Z,100990.09
2019-04-01T21:54:54.838Z,100985.84
2019-04-01T21:57:25.449Z,100982.89
2019-04-01T21:59:55.240Z,100980.95
2019-04-01T22:02:35.526Z,100982.27
2019-04-01T22:04:56.980Z,100979.98
2019-04-01T22:07:26.846Z,100975.65
2019-04-01T22:09:57.001Z,100979.84
2019-04-01T22:12:27.916Z,100979.36
2019-04-01T22:14:57.770Z,100967.42
2019-04-01T22:17:27.887Z,100972.59
2019-04-01T22:19:58.011Z,100971.89
2019-04-01T22:22:27.870Z,100970.08
2019-04-01T22:24:57.726Z,100967.78
2019-04-01T22:27:27.501Z,100963.72
2019-04-01T22:29:57.277Z,100961.06
2019-04-01T22:32:27.205Z,100964.06
2019-04-01T22:34:57.392Z,100958.06
2019-04-01T22:37:27.894Z,100954.22
2019-04-01T22:39:57.855Z,100951.38
2019-04-01T22:42:27.702Z,100953.45
2019-04-01T22:44:57.849Z,100945.64
2019-04-01T22:47:27.772Z,100942.63
2019-04-01T22:49:57.633Z,100937.60
2019-04-01T22:52:27.552Z,100942.55
2019-04-01T22:54:58.252Z,100935.70
2019-04-01T22:57:29.383Z,100933.84
2019-04-01T22:59:59.318Z,100926.16
2019-04-01T23:02:29.169Z,100927.26
2019-04-01T23:04:58.960Z,100923.41
2019-04-01T23:07:28.759Z,100918.11
2019-04-01T23:09:58.615Z,100914.05
2019-04-01T23:12:28.469Z,100911.70
2019-04-01T23:14:58.394Z,100911.84
2019-04-01T23:17:28.325Z,100910.64
2019-04-01T23:19:58.804Z,100909.94
2019-04-01T23:22:29.252Z,100911.87
2019-04-01T23:24:59.393Z,100911.05
2019-04-01T23:27:29.891Z,100913.95
2019-04-01T23:29:59.814Z,100907.46
2019-04-01T23:32:29.663Z,100906.08
2019-04-01T23:34:59.480Z,100901.05
2019-04-01T23:37:29.252Z,100893.36
2019-04-01T23:39:59.172Z,100895.31
2019-04-01T23:42:29.738Z,100899.90
2019-04-01T23:44:59.808Z,100903.65
2019-04-01T23:47:30.479Z,100894.77
2019-04-01T23:50:00.385Z,100895.03
2019-04-01T23:52:30.168Z,100894.33
2019-04-01T23:55:00.159Z,100889.42
2019-04-01T23:57:30.123Z,100885.39
2019-04-01T23:59:59.959Z,100881.68
